Terminal Aerodrome Forecast
Issued by NWS

Home | Current Version | Previous Version | Text Only | Print | Product List | Glossary On
Versions: 1 2 3 4 5 6 7 8 9 10 11 12 13 14
000
FTUS46 KHNX 292355
TAFMER
TAF
KMER 292355Z 3000/3024 33008KT P6SM FEW200
     FM300800 VRB04KT P6SM FEW150 SCT200
     FM301800 30008KT P6SM SCT150 BKN200=

USA.gov is the U.S. government's official web portal to all federal, state and local government web resources and services.